sensor_id;sensor_type;location;lat;lon;timestamp;pressure;altitude;pressure_sealevel;temperature;humidity
28306;BME280;7516;43.570;1.448;2023-03-22T00:02:04;99681.13;;;9.30;100.00
28306;BME280;7516;43.570;1.448;2023-03-22T00:04:31;99687.63;;;9.26;100.00
28306;BME280;7516;43.570;1.448;2023-03-22T00:06:59;99685.38;;;9.23;100.00
28306;BME280;7516;43.570;1.448;2023-03-22T00:09:26;99675.53;;;9.17;100.00
28306;BME280;7516;43.570;1.448;2023-03-22T00:11:55;99676.06;;;9.12;100.00
28306;BME280;7516;43.570;1.448;2023-03-22T00:14:22;99670.31;;;9.09;100.00
28306;BME280;7516;43.570;1.448;2023-03-22T00:16:50;99670.66;;;9.05;100.00
28306;BME280;7516;43.570;1.448;2023-03-22T00:19:18;99670.81;;;9.04;100.00
28306;BME280;7516;43.570;1.448;2023-03-22T00:21:46;99666.88;;;9.00;100.00
28306;BME280;7516;43.570;1.448;2023-03-22T00:24:13;99664.78;;;8.95;100.00
28306;BME280;7516;43.570;1.448;2023-03-22T00:26:41;99664.28;;;8.92;100.00
28306;BME280;7516;43.570;1.448;2023-03-22T00:29:09;99669.50;;;8.92;100.00
28306;BME280;7516;43.570;1.448;2023-03-22T00:31:37;99669.50;;;8.92;100.00
28306;BME280;7516;43.570;1.448;2023-03-22T00:34:04;99663.47;;;8.91;100.00
28306;BME280;7516;43.570;1.448;2023-03-22T00:36:32;99662.16;;;8.87;100.00
28306;BME280;7516;43.570;1.448;2023-03-22T00:38:59;99663.59;;;8.82;100.00
28306;BME280;7516;43.570;1.448;2023-03-22T00:41:27;99658.88;;;8.77;100.00
28306;BME280;7516;43.570;1.448;2023-03-22T00:43:54;99660.69;;;8.77;100.00
28306;BME280;7516;43.570;1.448;2023-03-22T00:46:24;99656.59;;;8.74;100.00
28306;BME280;7516;43.570;1.448;2023-03-22T00:48:52;99647.47;;;8.70;100.00
28306;BME280;7516;43.570;1.448;2023-03-22T00:51:20;99644.19;;;8.68;100.00
28306;BME280;7516;43.570;1.448;2023-03-22T00:53:47;99641.22;;;8.63;100.00
28306;BME280;7516;43.570;1.448;2023-03-22T00:56:16;99633.88;;;8.58;100.00
28306;BME280;7516;43.570;1.448;2023-03-22T00:58:43;99631.13;;;8.60;100.00
28306;BME280;7516;43.570;1.448;2023-03-22T01:01:11;99623.09;;;8.53;100.00
28306;BME280;7516;43.570;1.448;2023-03-22T01:03:41;99600.75;;;8.51;100.00
28306;BME280;7516;43.570;1.448;2023-03-22T01:06:09;99611.19;;;8.43;100.00
28306;BME280;7516;43.570;1.448;2023-03-22T01:08:36;99598.28;;;8.41;100.00
28306;BME280;7516;43.570;1.448;2023-03-22T01:11:04;99600.88;;;8.41;100.00
28306;BME280;7516;43.570;1.448;2023-03-22T01:13:33;99599.09;;;8.42;100.00
28306;BME280;7516;43.570;1.448;2023-03-22T01:16:02;99605.59;;;8.38;100.00
28306;BME280;7516;43.570;1.448;2023-03-22T01:18:30;99601.97;;;8.30;100.00
28306;BME280;7516;43.570;1.448;2023-03-22T01:20:59;99600.34;;;8.29;100.00
28306;BME280;7516;43.570;1.448;2023-03-22T01:23:27;99597.72;;;8.29;100.00
28306;BME280;7516;43.570;1.448;2023-03-22T01:25:54;99590.03;;;8.28;100.00
28306;BME280;7516;43.570;1.448;2023-03-22T01:28:22;99584.00;;;8.27;100.00
28306;BME280;7516;43.570;1.448;2023-03-22T01:30:49;99578.16;;;8.25;100.00
28306;BME280;7516;43.570;1.448;2023-03-22T01:33:17;99583.19;;;8.19;100.00
28306;BME280;7516;43.570;1.448;2023-03-22T01:35:45;99568.97;;;8.13;100.00
28306;BME280;7516;43.570;1.448;2023-03-22T01:38:13;99569.28;;;8.10;100.00
28306;BME280;7516;43.570;1.448;2023-03-22T01:40:41;99563.09;;;8.03;100.00
28306;BME280;7516;43.570;1.448;2023-03-22T01:43:14;99559.81;;;8.01;100.00
28306;BME280;7516;43.570;1.448;2023-03-22T01:45:43;99562.41;;;8.01;100.00
28306;BME280;7516;43.570;1.448;2023-03-22T01:48:19;99559.00;;;8.01;100.00
28306;BME280;7516;43.570;1.448;2023-03-22T01:50:59;99554.41;;;7.94;100.00
28306;BME280;7516;43.570;1.448;2023-03-22T01:53:33;99551.16;;;7.92;100.00
28306;BME280;7516;43.570;1.448;2023-03-22T01:56:02;99544.63;;;7.88;100.00
28306;BME280;7516;43.570;1.448;2023-03-22T01:58:31;99557.81;;;7.87;100.00
28306;BME280;7516;43.570;1.448;2023-03-22T02:01:00;99550.78;;;7.79;100.00
28306;BME280;7516;43.570;1.448;2023-03-22T02:03:34;99548.34;;;7.78;100.00
28306;BME280;7516;43.570;1.448;2023-03-22T02:06:04;99534.63;;;7.76;100.00
28306;BME280;7516;43.570;1.448;2023-03-22T02:08:33;99530.25;;;7.76;100.00
28306;BME280;7516;43.570;1.448;2023-03-22T02:11:02;99542.13;;;7.71;100.00
28306;BME280;7516;43.570;1.448;2023-03-22T02:13:51;99535.44;;;7.68;100.00
28306;BME280;7516;43.570;1.448;2023-03-22T02:16:28;99529.06;;;7.63;100.00
28306;BME280;7516;43.570;1.448;2023-03-22T02:19:21;99532.16;;;7.66;100.00
28306;BME280;7516;43.570;1.448;2023-03-22T02:25:24;99524.97;;;7.60;100.00
28306;BME280;7516;43.570;1.448;2023-03-22T02:28:20;99528.38;;;7.52;100.00
28306;BME280;7516;43.570;1.448;2023-03-22T02:34:05;99514.34;;;7.45;100.00
28306;BME280;7516;43.570;1.448;2023-03-22T02:37:01;99509.56;;;7.41;100.00
28306;BME280;7516;43.570;1.448;2023-03-22T02:39:38;99512.84;;;7.43;100.00
28306;BME280;7516;43.570;1.448;2023-03-22T02:42:21;99510.41;;;7.41;100.00
28306;BME280;7516;43.570;1.448;2023-03-22T02:44:58;99514.63;;;7.42;100.00
28306;BME280;7516;43.570;1.448;2023-03-22T02:47:35;99518.38;;;7.40;100.00
28306;BME280;7516;43.570;1.448;2023-03-22T02:50:09;99517.88;;;7.36;100.00
28306;BME280;7516;43.570;1.448;2023-03-22T02:52:43;99514.31;;;7.37;100.00
28306;BME280;7516;43.570;1.448;2023-03-22T02:55:17;99512.97;;;7.33;100.00
28306;BME280;7516;43.570;1.448;2023-03-22T02:57:51;99508.69;;;7.24;100.00
28306;BME280;7516;43.570;1.448;2023-03-22T03:00:21;99507.06;;;7.23;100.00
28306;BME280;7516;43.570;1.448;2023-03-22T03:02:53;99500.22;;;7.22;100.00
28306;BME280;7516;43.570;1.448;2023-03-22T03:05:23;99495.31;;;7.19;100.00
28306;BME280;7516;43.570;1.448;2023-03-22T03:07:56;99491.91;;;7.18;100.00
28306;BME280;7516;43.570;1.448;2023-03-22T03:10:26;99496.28;;;7.18;100.00
28306;BME280;7516;43.570;1.448;2023-03-22T03:12:54;99506.03;;;7.16;100.00
28306;BME280;7516;43.570;1.448;2023-03-22T03:15:22;99504.56;;;7.13;100.00
28306;BME280;7516;43.570;1.448;2023-03-22T03:18:07;99503.09;;;7.11;100.00
28306;BME280;7516;43.570;1.448;2023-03-22T03:20:48;99503.41;;;7.08;100.00
28306;BME280;7516;43.570;1.448;2023-03-22T03:23:26;99504.66;;;7.04;100.00
28306;BME280;7516;43.570;1.448;2023-03-22T03:26:02;99499.41;;;6.96;100.00
28306;BME280;7516;43.570;1.448;2023-03-22T03:28:37;99503.81;;;6.95;100.00
28306;BME280;7516;43.570;1.448;2023-03-22T03:31:17;99506.25;;;6.97;100.00
28306;BME280;7516;43.570;1.448;2023-03-22T03:33:53;99504.31;;;6.99;100.00
28306;BME280;7516;43.570;1.448;2023-03-22T03:36:24;99500.09;;;6.98;100.00
28306;BME280;7516;43.570;1.448;2023-03-22T03:38:54;99493.19;;;6.89;100.00
28306;BME280;7516;43.570;1.448;2023-03-22T03:41:26;99489.91;;;6.87;100.00
28306;BME280;7516;43.570;1.448;2023-03-22T03:43:56;99485.53;;;6.87;100.00
28306;BME280;7516;43.570;1.448;2023-03-22T03:46:24;99483.41;;;6.83;100.00
28306;BME280;7516;43.570;1.448;2023-03-22T03:48:54;99478.50;;;6.79;100.00
28306;BME280;7516;43.570;1.448;2023-03-22T03:51:24;99478.50;;;6.79;100.00
28306;BME280;7516;43.570;1.448;2023-03-22T03:53:52;99475.75;;;6.81;100.00
28306;BME280;7516;43.570;1.448;2023-03-22T03:56:20;99476.25;;;6.85;100.00
28306;BME280;7516;43.570;1.448;2023-03-22T03:58:49;99475.88;;;6.79;100.00
28306;BME280;7516;43.570;1.448;2023-03-22T04:01:16;99473.91;;;6.73;100.00
28306;BME280;7516;43.570;1.448;2023-03-22T04:03:44;99483.34;;;6.74;100.00
28306;BME280;7516;43.570;1.448;2023-03-22T04:06:15;99485.13;;;6.74;100.00
28306;BME280;7516;43.570;1.448;2023-03-22T04:08:43;99482.00;;;6.70;100.00
28306;BME280;7516;43.570;1.448;2023-03-22T04:11:11;99479.56;;;6.69;100.00
28306;BME280;7516;43.570;1.448;2023-03-22T04:13:38;99474.00;;;6.64;100.00
28306;BME280;7516;43.570;1.448;2023-03-22T04:16:08;99479.06;;;6.65;100.00
28306;BME280;7516;43.570;1.448;2023-03-22T04:18:38;99492.91;;;6.66;100.00
28306;BME280;7516;43.570;1.448;2023-03-22T04:21:06;99488.00;;;6.63;100.00
28306;BME280;7516;43.570;1.448;2023-03-22T04:23:33;99492.09;;;6.65;100.00
28306;BME280;7516;43.570;1.448;2023-03-22T04:26:01;99495.34;;;6.67;100.00
28306;BME280;7516;43.570;1.448;2023-03-22T04:28:28;99498.25;;;6.64;100.00
28306;BME280;7516;43.570;1.448;2023-03-22T04:30:59;99496.28;;;6.58;100.00
28306;BME280;7516;43.570;1.448;2023-03-22T04:33:30;99492.22;;;6.64;100.00
28306;BME280;7516;43.570;1.448;2023-03-22T04:36:05;99495.44;;;6.58;100.00
28306;BME280;7516;43.570;1.448;2023-03-22T04:38:35;99492.78;;;6.50;100.00
28306;BME280;7516;43.570;1.448;2023-03-22T04:41:05;99486.25;;;6.46;100.00
28306;BME280;7516;43.570;1.448;2023-03-22T04:43:32;99481.19;;;6.44;100.00
28306;BME280;7516;43.570;1.448;2023-03-22T04:46:00;99486.91;;;6.48;100.00
28306;BME280;7516;43.570;1.448;2023-03-22T04:48:29;99490.00;;;6.51;100.00
28306;BME280;7516;43.570;1.448;2023-03-22T04:50:57;99488.03;;;6.45;100.00
28306;BME280;7516;43.570;1.448;2023-03-22T04:53:29;99487.06;;;6.46;100.00
28306;BME280;7516;43.570;1.448;2023-03-22T04:55:56;99488.03;;;6.45;100.00
28306;BME280;7516;43.570;1.448;2023-03-22T04:58:24;99493.38;;;6.43;100.00
28306;BME280;7516;43.570;1.448;2023-03-22T05:00:52;99488.63;;;6.39;100.00
28306;BME280;7516;43.570;1.448;2023-03-22T05:03:20;99493.03;;;6.38;100.00
28306;BME280;7516;43.570;1.448;2023-03-22T05:05:54;99495.91;;;6.35;100.00
28306;BME280;7516;43.570;1.448;2023-03-22T05:08:23;99495.63;;;6.38;100.00
28306;BME280;7516;43.570;1.448;2023-03-22T05:10:51;99494.34;;;6.42;100.00
28306;BME280;7516;43.570;1.448;2023-03-22T05:13:19;99486.84;;;6.39;100.00
28306;BME280;7516;43.570;1.448;2023-03-22T05:15:47;99491.25;;;6.39;100.00
28306;BME280;7516;43.570;1.448;2023-03-22T05:18:17;99482.09;;;6.35;100.00
28306;BME280;7516;43.570;1.448;2023-03-22T05:20:46;99478.38;;;6.37;100.00
28306;BME280;7516;43.570;1.448;2023-03-22T05:23:15;99479.47;;;6.35;100.00
28306;BME280;7516;43.570;1.448;2023-03-22T05:25:44;99491.38;;;6.37;100.00
28306;BME280;7516;43.570;1.448;2023-03-22T05:28:12;99491.09;;;6.40;100.00
28306;BME280;7516;43.570;1.448;2023-03-22T05:30:43;99489.06;;;6.34;100.00
28306;BME280;7516;43.570;1.448;2023-03-22T05:33:11;99482.53;;;6.30;100.00
28306;BME280;7516;43.570;1.448;2023-03-22T05:35:40;99469.06;;;6.35;100.00
28306;BME280;7516;43.570;1.448;2023-03-22T05:38:08;99462.56;;;6.31;100.00
28306;BME280;7516;43.570;1.448;2023-03-22T05:40:37;99457.63;;;6.28;100.00
28306;BME280;7516;43.570;1.448;2023-03-22T05:43:04;99449.69;;;6.29;100.00
28306;BME280;7516;43.570;1.448;2023-03-22T05:45:33;99450.81;;;6.27;100.00
28306;BME280;7516;43.570;1.448;2023-03-22T05:48:02;99450.81;;;6.27;100.00
28306;BME280;7516;43.570;1.448;2023-03-22T05:50:29;99451.63;;;6.27;100.00
28306;BME280;7516;43.570;1.448;2023-03-22T05:52:57;99453.41;;;6.27;100.00
28306;BME280;7516;43.570;1.448;2023-03-22T05:55:25;99460.25;;;6.28;100.00
28306;BME280;7516;43.570;1.448;2023-03-22T05:57:56;99461.72;;;6.30;100.00
28306;BME280;7516;43.570;1.448;2023-03-22T06:00:24;99458.66;;;6.35;100.00
28306;BME280;7516;43.570;1.448;2023-03-22T06:02:52;99454.75;;;6.31;100.00
28306;BME280;7516;43.570;1.448;2023-03-22T06:05:22;99457.34;;;6.31;100.00
28306;BME280;7516;43.570;1.448;2023-03-22T06:07:49;99457.34;;;6.31;100.00
28306;BME280;7516;43.570;1.448;2023-03-22T06:10:17;99454.44;;;6.34;100.00
28306;BME280;7516;43.570;1.448;2023-03-22T06:12:44;99455.91;;;6.36;100.00
28306;BME280;7516;43.570;1.448;2023-03-22T06:15:13;99463.44;;;6.39;100.00
28306;BME280;7516;43.570;1.448;2023-03-22T06:17:41;99470.28;;;6.40;100.00
28306;BME280;7516;43.570;1.448;2023-03-22T06:20:10;99466.25;;;6.46;100.00
28306;BME280;7516;43.570;1.448;2023-03-22T06:22:38;99484.97;;;6.50;100.00
28306;BME280;7516;43.570;1.448;2023-03-22T06:25:09;99487.25;;;6.53;100.00
28306;BME280;7516;43.570;1.448;2023-03-22T06:27:37;99494.91;;;6.54;100.00
28306;BME280;7516;43.570;1.448;2023-03-22T06:30:06;99493.59;;;6.50;100.00
28306;BME280;7516;43.570;1.448;2023-03-22T06:32:35;99491.22;;;6.57;100.00
28306;BME280;7516;43.570;1.448;2023-03-22T06:35:02;99497.28;;;6.65;100.00
28306;BME280;7516;43.570;1.448;2023-03-22T06:37:30;99486.59;;;6.68;100.00
28306;BME280;7516;43.570;1.448;2023-03-22T06:39:57;99487.44;;;6.77;100.00
28306;BME280;7516;43.570;1.448;2023-03-22T06:42:25;99491.03;;;6.76;100.00
28306;BME280;7516;43.570;1.448;2023-03-22T06:44:55;99496.22;;;6.76;100.00
28306;BME280;7516;43.570;1.448;2023-03-22T06:47:23;99497.88;;;6.77;100.00
28306;BME280;7516;43.570;1.448;2023-03-22T06:49:52;99498.88;;;6.84;100.00
28306;BME280;7516;43.570;1.448;2023-03-22T06:52:20;99504.72;;;6.86;100.00
28306;BME280;7516;43.570;1.448;2023-03-22T06:54:48;99499.88;;;6.91;100.00
28306;BME280;7516;43.570;1.448;2023-03-22T06:57:16;99506.94;;;6.99;100.00
28306;BME280;7516;43.570;1.448;2023-03-22T06:59:43;99491.34;;;7.07;100.00
28306;BME280;7516;43.570;1.448;2023-03-22T07:02:11;99485.00;;;7.09;100.00
28306;BME280;7516;43.570;1.448;2023-03-22T07:04:39;99478.34;;;7.15;100.00
28306;BME280;7516;43.570;1.448;2023-03-22T07:07:08;99486.88;;;7.25;100.00
28306;BME280;7516;43.570;1.448;2023-03-22T07:09:37;99483.19;;;7.36;100.00
28306;BME280;7516;43.570;1.448;2023-03-22T07:12:05;99486.63;;;7.44;100.00
28306;BME280;7516;43.570;1.448;2023-03-22T07:14:32;99493.81;;;7.50;100.00
28306;BME280;7516;43.570;1.448;2023-03-22T07:17:00;99498.72;;;7.53;100.00
28306;BME280;7516;43.570;1.448;2023-03-22T07:19:28;99499.06;;;7.59;100.00
28306;BME280;7516;43.570;1.448;2023-03-22T07:21:56;99505.09;;;7.59;100.00
28306;BME280;7516;43.570;1.448;2023-03-22T07:24:25;99493.03;;;7.66;100.00
28306;BME280;7516;43.570;1.448;2023-03-22T07:26:52;99498.28;;;7.74;100.00
28306;BME280;7516;43.570;1.448;2023-03-22T07:29:20;99496.03;;;7.79;100.00
28306;BME280;7516;43.570;1.448;2023-03-22T07:31:48;99490.00;;;7.87;100.00
28306;BME280;7516;43.570;1.448;2023-03-22T07:34:16;99492.63;;;7.95;100.00
28306;BME280;7516;43.570;1.448;2023-03-22T07:36:44;99488.38;;;8.02;100.00
28306;BME280;7516;43.570;1.448;2023-03-22T07:39:11;99488.06;;;8.05;100.00
28306;BME280;7516;43.570;1.448;2023-03-22T07:41:40;99493.47;;;8.12;100.00
28306;BME280;7516;43.570;1.448;2023-03-22T07:44:08;99486.78;;;8.17;100.00
28306;BME280;7516;43.570;1.448;2023-03-22T07:46:35;99491.66;;;8.20;100.00
28306;BME280;7516;43.570;1.448;2023-03-22T07:49:03;99494.13;;;8.22;100.00
28306;BME280;7516;43.570;1.448;2023-03-22T07:51:30;99485.16;;;8.24;100.00
28306;BME280;7516;43.570;1.448;2023-03-22T07:53:58;99483.84;;;8.28;100.00
28306;BME280;7516;43.570;1.448;2023-03-22T07:56:25;99481.59;;;8.34;100.00
28306;BME280;7516;43.570;1.448;2023-03-22T07:58:54;99490.72;;;8.38;100.00
28306;BME280;7516;43.570;1.448;2023-03-22T08:01:22;99482.88;;;8.46;100.00
28306;BME280;7516;43.570;1.448;2023-03-22T08:03:50;99495.63;;;8.57;100.00
28306;BME280;7516;43.570;1.448;2023-03-22T08:06:18;99512.41;;;8.62;100.00
28306;BME280;7516;43.570;1.448;2023-03-22T08:08:46;99505.38;;;8.71;100.00
28306;BME280;7516;43.570;1.448;2023-03-22T08:11:14;99504.75;;;8.77;100.00
28306;BME280;7516;43.570;1.448;2023-03-22T08:13:41;99513.84;;;8.89;100.00
28306;BME280;7516;43.570;1.448;2023-03-22T08:16:10;99508.81;;;8.96;100.00
28306;BME280;7516;43.570;1.448;2023-03-22T08:18:38;99505.34;;;9.03;100.00
28306;BME280;7516;43.570;1.448;2023-03-22T08:21:06;99500.09;;;9.12;100.00
28306;BME280;7516;43.570;1.448;2023-03-22T08:23:33;99497.78;;;9.17;100.00
28306;BME280;7516;43.570;1.448;2023-03-22T08:26:01;99495.34;;;9.23;100.00
28306;BME280;7516;43.570;1.448;2023-03-22T08:28:28;99496.75;;;9.34;100.00
28306;BME280;7516;43.570;1.448;2023-03-22T08:30:56;99498.66;;;9.48;100.00
28306;BME280;7516;43.570;1.448;2023-03-22T08:33:25;99493.03;;;9.59;100.00
28306;BME280;7516;43.570;1.448;2023-03-22T08:36:04;99501.00;;;9.74;100.00
28306;BME280;7516;43.570;1.448;2023-03-22T08:38:32;99490.31;;;9.84;100.00
28306;BME280;7516;43.570;1.448;2023-03-22T08:41:00;99489.44;;;9.91;100.00
28306;BME280;7516;43.570;1.448;2023-03-22T08:43:28;99478.44;;;9.96;100.00
28306;BME280;7516;43.570;1.448;2023-03-22T08:45:56;99484.25;;;10.06;100.00
28306;BME280;7516;43.570;1.448;2023-03-22T08:48:25;99481.91;;;10.19;100.00
28306;BME280;7516;43.570;1.448;2023-03-22T08:50:55;99483.19;;;10.23;100.00
28306;BME280;7516;43.570;1.448;2023-03-22T08:53:23;99480.16;;;10.34;100.00
28306;BME280;7516;43.570;1.448;2023-03-22T08:55:50;99478.22;;;10.51;100.00
28306;BME280;7516;43.570;1.448;2023-03-22T08:58:18;99471.72;;;10.62;100.00
28306;BME280;7516;43.570;1.448;2023-03-22T09:00:46;99474.28;;;10.70;100.00
28306;BME280;7516;43.570;1.448;2023-03-22T09:03:13;99483.38;;;10.74;100.00
28306;BME280;7516;43.570;1.448;2023-03-22T09:05:42;99486.75;;;10.82;100.00
28306;BME280;7516;43.570;1.448;2023-03-22T09:08:10;99472.13;;;10.88;100.00
28306;BME280;7516;43.570;1.448;2023-03-22T09:10:38;99469.69;;;11.01;100.00
28306;BME280;7516;43.570;1.448;2023-03-22T09:13:05;99464.88;;;11.19;100.00
28306;BME280;7516;43.570;1.448;2023-03-22T09:15:33;99468.41;;;11.41;100.00
28306;BME280;7516;43.570;1.448;2023-03-22T09:18:00;99465.38;;;11.59;100.00
28306;BME280;7516;43.570;1.448;2023-03-22T09:20:28;99471.75;;;11.71;100.00
28306;BME280;7516;43.570;1.448;2023-03-22T09:22:57;99467.75;;;11.90;100.00
28306;BME280;7516;43.570;1.448;2023-03-22T09:25:24;99472.34;;;12.02;100.00
28306;BME280;7516;43.570;1.448;2023-03-22T09:27:52;99473.72;;;12.20;98.87
28306;BME280;7516;43.570;1.448;2023-03-22T09:30:19;99470.59;;;12.31;98.05
28306;BME280;7516;43.570;1.448;2023-03-22T09:32:47;99482.19;;;12.43;98.92
28306;BME280;7516;43.570;1.448;2023-03-22T09:35:14;99474.97;;;12.52;99.98
28306;BME280;7516;43.570;1.448;2023-03-22T09:37:42;99479.69;;;12.56;100.00
28306;BME280;7516;43.570;1.448;2023-03-22T09:40:12;99478.53;;;12.65;98.61
28306;BME280;7516;43.570;1.448;2023-03-22T09:42:43;99474.13;;;12.72;98.08
28306;BME280;7516;43.570;1.448;2023-03-22T09:45:15;99470.91;;;12.77;98.36
28306;BME280;7516;43.570;1.448;2023-03-22T09:47:47;99477.03;;;12.84;97.68
28306;BME280;7516;43.570;1.448;2023-03-22T09:50:19;99473.69;;;12.97;98.73
28306;BME280;7516;43.570;1.448;2023-03-22T09:52:47;99470.69;;;13.00;96.51
28306;BME280;7516;43.570;1.448;2023-03-22T09:55:33;99463.63;;;13.07;96.14
28306;BME280;7516;43.570;1.448;2023-03-22T09:58:08;99465.13;;;13.16;97.10
28306;BME280;7516;43.570;1.448;2023-03-22T10:00:46;99466.75;;;13.17;94.98
28306;BME280;7516;43.570;1.448;2023-03-22T10:03:20;99470.78;;;13.19;96.23
28306;BME280;7516;43.570;1.448;2023-03-22T10:05:54;99467.63;;;13.31;95.16
28306;BME280;7516;43.570;1.448;2023-03-22T10:08:35;99466.84;;;13.37;93.60
28306;BME280;7516;43.570;1.448;2023-03-22T10:11:16;99470.09;;;13.39;94.86
28306;BME280;7516;43.570;1.448;2023-03-22T10:13:54;99470.56;;;13.55;93.19
28306;BME280;7516;43.570;1.448;2023-03-22T10:16:27;99468.97;;;13.68;93.16
28306;BME280;7516;43.570;1.448;2023-03-22T10:19:03;99464.91;;;13.65;91.88
28306;BME280;7516;43.570;1.448;2023-03-22T10:21:32;99461.97;;;13.88;91.79
28306;BME280;7516;43.570;1.448;2023-03-22T10:24:05;99461.56;;;13.98;91.14
28306;BME280;7516;43.570;1.448;2023-03-22T10:26:39;99462.19;;;14.06;91.61
28306;BME280;7516;43.570;1.448;2023-03-22T10:29:12;99471.31;;;14.10;87.96
28306;BME280;7516;43.570;1.448;2023-03-22T10:31:42;99460.16;;;14.28;88.91
28306;BME280;7516;43.570;1.448;2023-03-22T10:34:15;99466.31;;;14.42;88.35
28306;BME280;7516;43.570;1.448;2023-03-22T10:36:46;99461.22;;;14.53;83.37
28306;BME280;7516;43.570;1.448;2023-03-22T10:39:26;99456.56;;;14.68;85.22
28306;BME280;7516;43.570;1.448;2023-03-22T10:41:58;99463.84;;;14.73;82.21
28306;BME280;7516;43.570;1.448;2023-03-22T10:44:28;99452.03;;;14.89;82.98
28306;BME280;7516;43.570;1.448;2023-03-22T10:47:01;99453.47;;;14.91;81.90
28306;BME280;7516;43.570;1.448;2023-03-22T10:49:37;99465.44;;;14.94;83.37
28306;BME280;7516;43.570;1.448;2023-03-22T10:52:17;99460.97;;;15.01;79.03
28306;BME280;7516;43.570;1.448;2023-03-22T10:54:46;99463.78;;;15.13;81.42
28306;BME280;7516;43.570;1.448;2023-03-22T10:57:15;99461.28;;;15.24;80.63
28306;BME280;7516;43.570;1.448;2023-03-22T10:59:47;99463.72;;;15.26;80.31
28306;BME280;7516;43.570;1.448;2023-03-22T11:02:21;99457.59;;;15.38;76.13
28306;BME280;7516;43.570;1.448;2023-03-22T11:04:50;99468.94;;;15.46;74.74
28306;BME280;7516;43.570;1.448;2023-03-22T11:07:32;99463.63;;;15.59;77.69
28306;BME280;7516;43.570;1.448;2023-03-22T11:10:19;99464.94;;;15.74;74.57
28306;BME280;7516;43.570;1.448;2023-03-22T11:12:50;99458.22;;;15.78;77.02
28306;BME280;7516;43.570;1.448;2023-03-22T11:15:29;99456.28;;;15.99;76.32
28306;BME280;7516;43.570;1.448;2023-03-22T11:17:59;99449.88;;;16.13;74.87
28306;BME280;7516;43.570;1.448;2023-03-22T11:20:28;99452.59;;;16.31;70.87
28306;BME280;7516;43.570;1.448;2023-03-22T11:22:56;99456.88;;;16.32;73.31
28306;BME280;7516;43.570;1.448;2023-03-22T11:25:28;99454.22;;;16.32;73.46
28306;BME280;7516;43.570;1.448;2023-03-22T11:28:07;99447.50;;;16.61;71.83
28306;BME280;7516;43.570;1.448;2023-03-22T11:30:36;99452.44;;;16.76;71.49
28306;BME280;7516;43.570;1.448;2023-03-22T11:33:15;99449.44;;;16.90;68.39
28306;BME280;7516;43.570;1.448;2023-03-22T11:35:47;99451.22;;;16.97;69.69
28306;BME280;7516;43.570;1.448;2023-03-22T11:38:24;99447.59;;;17.27;69.33
28306;BME280;7516;43.570;1.448;2023-03-22T11:40:56;99436.50;;;17.19;67.17
28306;BME280;7516;43.570;1.448;2023-03-22T11:43:32;99434.97;;;17.11;68.53
28306;BME280;7516;43.570;1.448;2023-03-22T11:46:00;99428.56;;;17.19;68.62
28306;BME280;7516;43.570;1.448;2023-03-22T11:48:30;99427.22;;;17.28;66.38
28306;BME280;7516;43.570;1.448;2023-03-22T11:51:05;99424.06;;;17.38;67.76
28306;BME280;7516;43.570;1.448;2023-03-22T11:53:35;99426.19;;;17.29;66.79
28306;BME280;7516;43.570;1.448;2023-03-22T11:56:05;99418.97;;;17.36;66.05
28306;BME280;7516;43.570;1.448;2023-03-22T11:58:56;99419.34;;;17.40;67.39
28306;BME280;7516;43.570;1.448;2023-03-22T12:01:34;99415.56;;;17.47;68.38
28306;BME280;7516;43.570;1.448;2023-03-22T12:04:06;99399.22;;;17.50;64.78
28306;BME280;7516;43.570;1.448;2023-03-22T12:06:38;99407.63;;;17.65;66.08
28306;BME280;7516;43.570;1.448;2023-03-22T12:09:15;99400.28;;;17.79;64.89
28306;BME280;7516;43.570;1.448;2023-03-22T12:11:48;99392.19;;;17.74;65.19
28306;BME280;7516;43.570;1.448;2023-03-22T12:14:22;99386.44;;;17.77;66.82
28306;BME280;7516;43.570;1.448;2023-03-22T12:16:55;99384.50;;;17.84;63.31
28306;BME280;7516;43.570;1.448;2023-03-22T12:19:36;99386.38;;;18.07;62.42
28306;BME280;7516;43.570;1.448;2023-03-22T12:22:10;99379.91;;;18.03;63.17
28306;BME280;7516;43.570;1.448;2023-03-22T12:24:37;99382.34;;;18.16;62.23
28306;BME280;7516;43.570;1.448;2023-03-22T12:27:14;99376.03;;;18.17;62.71
28306;BME280;7516;43.570;1.448;2023-03-22T12:29:49;99373.72;;;18.32;61.26
28306;BME280;7516;43.570;1.448;2023-03-22T12:32:22;99372.56;;;18.40;60.42
28306;BME280;7516;43.570;1.448;2023-03-22T12:34:52;99369.34;;;18.61;60.64
28306;BME280;7516;43.570;1.448;2023-03-22T12:37:23;99365.66;;;18.62;60.96
28306;BME280;7516;43.570;1.448;2023-03-22T12:39:57;99365.16;;;18.77;58.14
28306;BME280;7516;43.570;1.448;2023-03-22T12:42:31;99354.19;;;18.85;58.93
28306;BME280;7516;43.570;1.448;2023-03-22T12:45:05;99359.19;;;19.10;55.42
28306;BME280;7516;43.570;1.448;2023-03-22T12:47:40;99347.34;;;19.29;57.05
28306;BME280;7516;43.570;1.448;2023-03-22T12:50:12;99345.13;;;19.66;55.20
28306;BME280;7516;43.570;1.448;2023-03-22T12:52:45;99344.16;;;19.89;54.88
28306;BME280;7516;43.570;1.448;2023-03-22T12:55:21;99346.28;;;20.04;49.44
28306;BME280;7516;43.570;1.448;2023-03-22T12:57:49;99339.22;;;20.14;51.97
28306;BME280;7516;43.570;1.448;2023-03-22T13:00:25;99337.47;;;20.20;48.97
28306;BME280;7516;43.570;1.448;2023-03-22T13:02:57;99335.09;;;20.23;51.71
28306;BME280;7516;43.570;1.448;2023-03-22T13:05:28;99335.09;;;20.23;52.94
28306;BME280;7516;43.570;1.448;2023-03-22T13:07:56;99328.44;;;20.38;50.52
28306;BME280;7516;43.570;1.448;2023-03-22T13:13:43;99321.59;;;20.63;48.64
28306;BME280;7516;43.570;1.448;2023-03-22T13:16:21;99320.03;;;20.67;47.93
28306;BME280;7516;43.570;1.448;2023-03-22T13:18:58;99313.06;;;20.83;45.67
28306;BME280;7516;43.570;1.448;2023-03-22T13:21:28;99316.56;;;20.89;48.32
28306;BME280;7516;43.570;1.448;2023-03-22T13:23:59;99301.50;;;20.99;47.13
28306;BME280;7516;43.570;1.448;2023-03-22T13:26:41;99306.94;;;21.10;44.66
28306;BME280;7516;43.570;1.448;2023-03-22T13:29:15;99308.59;;;21.16;44.63
28306;BME280;7516;43.570;1.448;2023-03-22T13:31:52;99302.84;;;21.24;44.91
28306;BME280;7516;43.570;1.448;2023-03-22T13:34:28;99296.25;;;21.31;46.64
28306;BME280;7516;43.570;1.448;2023-03-22T13:36:57;99297.63;;;21.34;47.39
28306;BME280;7516;43.570;1.448;2023-03-22T13:39:32;99297.63;;;21.34;44.56